sensor_id;sensor_type;location;lat;lon;timestamp;temperature;humidity
1626;DHT22;806;48.770;9.156;2023-02-28T00:01:06;1.40;99.90
1626;DHT22;806;48.770;9.156;2023-02-28T00:03:34;1.40;99.90
1626;DHT22;806;48.770;9.156;2023-02-28T00:06:02;1.30;99.90
1626;DHT22;806;48.770;9.156;2023-02-28T00:08:33;1.30;99.90
1626;DHT22;806;48.770;9.156;2023-02-28T00:11:01;1.30;99.90
1626;DHT22;806;48.770;9.156;2023-02-28T00:13:29;1.40;99.90
1626;DHT22;806;48.770;9.156;2023-02-28T00:16:01;1.40;99.90
1626;DHT22;806;48.770;9.156;2023-02-28T00:18:28;1.30;99.90
1626;DHT22;806;48.770;9.156;2023-02-28T00:20:55;1.30;99.90
1626;DHT22;806;48.770;9.156;2023-02-28T00:23:22;1.30;99.90
1626;DHT22;806;48.770;9.156;2023-02-28T00:25:51;1.40;99.90
1626;DHT22;806;48.770;9.156;2023-02-28T00:28:19;1.30;99.90
1626;DHT22;806;48.770;9.156;2023-02-28T00:30:46;1.00;99.90
1626;DHT22;806;48.770;9.156;2023-02-28T00:33:14;0.80;99.90
1626;DHT22;806;48.770;9.156;2023-02-28T00:35:41;0.50;99.90
1626;DHT22;806;48.770;9.156;2023-02-28T00:38:09;0.50;99.90
1626;DHT22;806;48.770;9.156;2023-02-28T00:40:36;0.30;99.90
1626;DHT22;806;48.770;9.156;2023-02-28T00:43:06;0.50;99.90
1626;DHT22;806;48.770;9.156;2023-02-28T00:45:33;0.50;99.90
1626;DHT22;806;48.770;9.156;2023-02-28T00:48:03;0.70;99.90
1626;DHT22;806;48.770;9.156;2023-02-28T00:50:30;0.50;99.90
1626;DHT22;806;48.770;9.156;2023-02-28T00:52:58;0.60;99.90
1626;DHT22;806;48.770;9.156;2023-02-28T00:55:26;0.70;99.90
1626;DHT22;806;48.770;9.156;2023-02-28T00:57:53;0.80;99.90
1626;DHT22;806;48.770;9.156;2023-02-28T01:00:22;0.90;99.90
1626;DHT22;806;48.770;9.156;2023-02-28T01:02:49;1.00;99.90
1626;DHT22;806;48.770;9.156;2023-02-28T01:05:18;1.10;99.90
1626;DHT22;806;48.770;9.156;2023-02-28T01:07:46;1.00;99.90
1626;DHT22;806;48.770;9.156;2023-02-28T01:10:14;0.70;99.90
1626;DHT22;806;48.770;9.156;2023-02-28T01:12:41;0.60;99.90
1626;DHT22;806;48.770;9.156;2023-02-28T01:15:10;0.50;99.90
1626;DHT22;806;48.770;9.156;2023-02-28T01:17:39;0.50;99.90
1626;DHT22;806;48.770;9.156;2023-02-28T01:20:07;0.40;99.90
1626;DHT22;806;48.770;9.156;2023-02-28T01:22:35;0.40;99.90
1626;DHT22;806;48.770;9.156;2023-02-28T01:25:03;0.70;99.90
1626;DHT22;806;48.770;9.156;2023-02-28T01:27:30;0.90;99.90
1626;DHT22;806;48.770;9.156;2023-02-28T01:29:57;1.00;99.90
1626;DHT22;806;48.770;9.156;2023-02-28T01:32:24;1.10;99.90
1626;DHT22;806;48.770;9.156;2023-02-28T01:34:52;1.20;99.90
1626;DHT22;806;48.770;9.156;2023-02-28T01:37:20;1.20;99.90
1626;DHT22;806;48.770;9.156;2023-02-28T01:39:47;1.10;99.90
1626;DHT22;806;48.770;9.156;2023-02-28T01:42:14;0.90;99.90
1626;DHT22;806;48.770;9.156;2023-02-28T01:45:00;0.80;99.90
1626;DHT22;806;48.770;9.156;2023-02-28T01:47:30;0.90;99.90
1626;DHT22;806;48.770;9.156;2023-02-28T01:50:03;1.00;99.90
1626;DHT22;806;48.770;9.156;2023-02-28T01:52:31;1.10;99.90
1626;DHT22;806;48.770;9.156;2023-02-28T01:55:01;0.80;99.90
1626;DHT22;806;48.770;9.156;2023-02-28T01:57:32;0.70;99.90
1626;DHT22;806;48.770;9.156;2023-02-28T02:00:06;0.60;99.90
1626;DHT22;806;48.770;9.156;2023-02-28T02:02:37;0.70;99.90
1626;DHT22;806;48.770;9.156;2023-02-28T02:05:09;0.60;99.90
1626;DHT22;806;48.770;9.156;2023-02-28T02:07:38;0.50;99.90
1626;DHT22;806;48.770;9.156;2023-02-28T02:10:11;0.60;99.90
1626;DHT22;806;48.770;9.156;2023-02-28T02:13:00;0.50;99.90
1626;DHT22;806;48.770;9.156;2023-02-28T02:15:31;0.40;99.90
1626;DHT22;806;48.770;9.156;2023-02-28T02:18:04;0.70;99.90
1626;DHT22;806;48.770;9.156;2023-02-28T02:26:55;0.30;99.90
1626;DHT22;806;48.770;9.156;2023-02-28T02:29:56;0.40;99.90
1626;DHT22;806;48.770;9.156;2023-02-28T02:33:03;0.60;99.90
1626;DHT22;806;48.770;9.156;2023-02-28T02:35:34;0.70;99.90
1626;DHT22;806;48.770;9.156;2023-02-28T02:38:09;0.90;99.90
1626;DHT22;806;48.770;9.156;2023-02-28T02:40:42;0.90;99.90
1626;DHT22;806;48.770;9.156;2023-02-28T02:43:15;0.80;99.90
1626;DHT22;806;48.770;9.156;2023-02-28T02:45:47;0.60;99.90
1626;DHT22;806;48.770;9.156;2023-02-28T02:48:19;0.50;99.90
1626;DHT22;806;48.770;9.156;2023-02-28T02:50:50;0.40;99.90
1626;DHT22;806;48.770;9.156;2023-02-28T02:53:23;0.50;99.90
1626;DHT22;806;48.770;9.156;2023-02-28T02:55:53;0.40;99.90
1626;DHT22;806;48.770;9.156;2023-02-28T02:58:24;0.60;99.90
1626;DHT22;806;48.770;9.156;2023-02-28T03:00:55;0.70;99.90
1626;DHT22;806;48.770;9.156;2023-02-28T03:03:25;0.90;99.90
1626;DHT22;806;48.770;9.156;2023-02-28T03:05:58;0.80;99.90
1626;DHT22;806;48.770;9.156;2023-02-28T03:08:27;0.90;99.90
1626;DHT22;806;48.770;9.156;2023-02-28T03:10:57;0.80;99.90
1626;DHT22;806;48.770;9.156;2023-02-28T03:13:42;0.70;99.90
1626;DHT22;806;48.770;9.156;2023-02-28T03:16:23;0.40;99.90
1626;DHT22;806;48.770;9.156;2023-02-28T03:18:58;0.40;99.90
1626;DHT22;806;48.770;9.156;2023-02-28T03:21:34;0.10;99.90
1626;DHT22;806;48.770;9.156;2023-02-28T03:24:05;0.40;99.90
1626;DHT22;806;48.770;9.156;2023-02-28T03:26:38;0.40;99.90
1626;DHT22;806;48.770;9.156;2023-02-28T03:29:12;0.60;99.90
1626;DHT22;806;48.770;9.156;2023-02-28T03:31:46;0.80;99.90
1626;DHT22;806;48.770;9.156;2023-02-28T03:34:19;0.80;99.90
1626;DHT22;806;48.770;9.156;2023-02-28T03:36:52;0.70;99.90
1626;DHT22;806;48.770;9.156;2023-02-28T03:39:23;0.60;99.90
1626;DHT22;806;48.770;9.156;2023-02-28T03:41:54;0.60;99.90
1626;DHT22;806;48.770;9.156;2023-02-28T03:44:27;0.30;99.90
1626;DHT22;806;48.770;9.156;2023-02-28T03:46:59;0.40;99.90
1626;DHT22;806;48.770;9.156;2023-02-28T03:49:32;0.60;99.90
1626;DHT22;806;48.770;9.156;2023-02-28T03:52:05;0.50;99.90
1626;DHT22;806;48.770;9.156;2023-02-28T03:54:38;0.40;99.90
1626;DHT22;806;48.770;9.156;2023-02-28T03:57:13;0.50;99.90
1626;DHT22;806;48.770;9.156;2023-02-28T03:59:45;0.40;99.90
1626;DHT22;806;48.770;9.156;2023-02-28T04:02:14;0.50;99.90
1626;DHT22;806;48.770;9.156;2023-02-28T04:04:41;0.50;99.90
1626;DHT22;806;48.770;9.156;2023-02-28T04:07:16;0.60;99.90
1626;DHT22;806;48.770;9.156;2023-02-28T04:09:43;0.60;99.90
1626;DHT22;806;48.770;9.156;2023-02-28T04:12:10;0.60;99.90
1626;DHT22;806;48.770;9.156;2023-02-28T04:14:37;0.80;99.90
1626;DHT22;806;48.770;9.156;2023-02-28T04:17:05;0.90;99.90
1626;DHT22;806;48.770;9.156;2023-02-28T04:19:32;0.70;99.90
1626;DHT22;806;48.770;9.156;2023-02-28T04:21:59;0.80;99.90
1626;DHT22;806;48.770;9.156;2023-02-28T04:24:28;1.00;99.90
1626;DHT22;806;48.770;9.156;2023-02-28T04:26:57;1.00;99.90
1626;DHT22;806;48.770;9.156;2023-02-28T04:29:26;1.10;99.90
1626;DHT22;806;48.770;9.156;2023-02-28T04:31:54;1.00;99.90
1626;DHT22;806;48.770;9.156;2023-02-28T04:34:23;0.80;99.90
1626;DHT22;806;48.770;9.156;2023-02-28T04:36:51;0.90;99.90
1626;DHT22;806;48.770;9.156;2023-02-28T04:39:20;0.90;99.90
1626;DHT22;806;48.770;9.156;2023-02-28T04:41:49;0.90;99.90
1626;DHT22;806;48.770;9.156;2023-02-28T04:44:16;0.80;99.90
1626;DHT22;806;48.770;9.156;2023-02-28T04:46:44;0.70;99.90
1626;DHT22;806;48.770;9.156;2023-02-28T04:49:11;0.90;99.90
1626;DHT22;806;48.770;9.156;2023-02-28T04:51:39;1.20;99.90
1626;DHT22;806;48.770;9.156;2023-02-28T04:54:06;1.00;99.90
1626;DHT22;806;48.770;9.156;2023-02-28T04:56:33;0.80;99.90
1626;DHT22;806;48.770;9.156;2023-02-28T04:59:02;0.60;99.90
1626;DHT22;806;48.770;9.156;2023-02-28T05:01:31;0.50;99.90
1626;DHT22;806;48.770;9.156;2023-02-28T05:04:00;0.70;99.90
1626;DHT22;806;48.770;9.156;2023-02-28T05:06:30;0.80;99.90
1626;DHT22;806;48.770;9.156;2023-02-28T05:08:58;0.70;99.90
1626;DHT22;806;48.770;9.156;2023-02-28T05:11:26;0.70;99.90
1626;DHT22;806;48.770;9.156;2023-02-28T05:13:54;0.90;99.90
1626;DHT22;806;48.770;9.156;2023-02-28T05:16:23;0.60;99.90
1626;DHT22;806;48.770;9.156;2023-02-28T05:18:50;0.50;99.90
1626;DHT22;806;48.770;9.156;2023-02-28T05:21:28;0.70;99.90
1626;DHT22;806;48.770;9.156;2023-02-28T05:23:56;0.80;99.90
1626;DHT22;806;48.770;9.156;2023-02-28T05:26:24;1.00;99.90
1626;DHT22;806;48.770;9.156;2023-02-28T05:28:51;0.80;99.90
1626;DHT22;806;48.770;9.156;2023-02-28T05:31:18;0.90;99.90
1626;DHT22;806;48.770;9.156;2023-02-28T05:33:46;0.90;99.90
1626;DHT22;806;48.770;9.156;2023-02-28T05:36:14;1.00;99.90
1626;DHT22;806;48.770;9.156;2023-02-28T05:38:41;1.00;99.90
1626;DHT22;806;48.770;9.156;2023-02-28T05:41:09;0.80;99.90
1626;DHT22;806;48.770;9.156;2023-02-28T05:43:37;0.80;99.90
1626;DHT22;806;48.770;9.156;2023-02-28T05:46:04;0.80;99.90
1626;DHT22;806;48.770;9.156;2023-02-28T05:48:32;1.00;99.90
1626;DHT22;806;48.770;9.156;2023-02-28T05:51:01;0.90;99.90
1626;DHT22;806;48.770;9.156;2023-02-28T05:53:28;0.90;99.90
1626;DHT22;806;48.770;9.156;2023-02-28T05:55:56;1.00;99.90
1626;DHT22;806;48.770;9.156;2023-02-28T05:58:23;1.00;99.90
1626;DHT22;806;48.770;9.156;2023-02-28T06:00:54;0.80;99.90
1626;DHT22;806;48.770;9.156;2023-02-28T06:03:21;0.70;99.90
1626;DHT22;806;48.770;9.156;2023-02-28T06:05:49;0.80;99.90
1626;DHT22;806;48.770;9.156;2023-02-28T06:08:17;0.70;99.90
1626;DHT22;806;48.770;9.156;2023-02-28T06:10:45;0.70;99.90
1626;DHT22;806;48.770;9.156;2023-02-28T06:13:12;0.80;99.90
1626;DHT22;806;48.770;9.156;2023-02-28T06:15:40;1.00;99.90
1626;DHT22;806;48.770;9.156;2023-02-28T06:18:07;1.30;99.90
1626;DHT22;806;48.770;9.156;2023-02-28T06:20:35;1.70;99.90
1626;DHT22;806;48.770;9.156;2023-02-28T06:23:02;1.90;99.90
1626;DHT22;806;48.770;9.156;2023-02-28T06:25:31;1.70;99.90
1626;DHT22;806;48.770;9.156;2023-02-28T06:27:58;1.60;99.90
1626;DHT22;806;48.770;9.156;2023-02-28T06:30:25;1.60;99.90
1626;DHT22;806;48.770;9.156;2023-02-28T06:32:54;1.80;99.90
1626;DHT22;806;48.770;9.156;2023-02-28T06:35:21;1.90;99.90
1626;DHT22;806;48.770;9.156;2023-02-28T06:37:48;1.80;99.90
1626;DHT22;806;48.770;9.156;2023-02-28T06:40:16;2.00;99.90
1626;DHT22;806;48.770;9.156;2023-02-28T06:42:44;2.00;99.90
1626;DHT22;806;48.770;9.156;2023-02-28T06:45:11;2.20;99.90
1626;DHT22;806;48.770;9.156;2023-02-28T06:47:40;2.10;99.90
1626;DHT22;806;48.770;9.156;2023-02-28T06:50:10;2.10;99.90
1626;DHT22;806;48.770;9.156;2023-02-28T06:52:38;1.80;99.90
1626;DHT22;806;48.770;9.156;2023-02-28T06:55:06;1.60;99.90
1626;DHT22;806;48.770;9.156;2023-02-28T06:57:35;1.80;99.90
1626;DHT22;806;48.770;9.156;2023-02-28T07:00:06;1.70;99.90
1626;DHT22;806;48.770;9.156;2023-02-28T07:02:35;1.70;99.90
1626;DHT22;806;48.770;9.156;2023-02-28T07:05:03;1.60;99.90
1626;DHT22;806;48.770;9.156;2023-02-28T07:07:30;1.80;99.90
1626;DHT22;806;48.770;9.156;2023-02-28T07:09:58;1.90;99.90
1626;DHT22;806;48.770;9.156;2023-02-28T07:12:25;1.90;99.90
1626;DHT22;806;48.770;9.156;2023-02-28T07:14:52;1.70;99.90
1626;DHT22;806;48.770;9.156;2023-02-28T07:17:21;2.20;99.90
1626;DHT22;806;48.770;9.156;2023-02-28T07:19:48;2.50;99.90
1626;DHT22;806;48.770;9.156;2023-02-28T07:22:15;2.60;99.90
1626;DHT22;806;48.770;9.156;2023-02-28T07:24:42;2.40;99.90
1626;DHT22;806;48.770;9.156;2023-02-28T07:27:09;2.30;99.90
1626;DHT22;806;48.770;9.156;2023-02-28T07:29:36;2.30;99.90
1626;DHT22;806;48.770;9.156;2023-02-28T07:32:04;2.30;99.90
1626;DHT22;806;48.770;9.156;2023-02-28T07:34:32;2.10;99.90
1626;DHT22;806;48.770;9.156;2023-02-28T07:36:59;2.20;99.90
1626;DHT22;806;48.770;9.156;2023-02-28T07:39:29;2.10;99.90
1626;DHT22;806;48.770;9.156;2023-02-28T07:41:56;2.30;99.90
1626;DHT22;806;48.770;9.156;2023-02-28T07:44:25;2.10;99.90
1626;DHT22;806;48.770;9.156;2023-02-28T07:46:52;2.20;99.90
1626;DHT22;806;48.770;9.156;2023-02-28T07:49:19;1.80;99.90
1626;DHT22;806;48.770;9.156;2023-02-28T07:51:48;1.90;99.90
1626;DHT22;806;48.770;9.156;2023-02-28T07:54:15;2.30;99.90
1626;DHT22;806;48.770;9.156;2023-02-28T07:56:42;2.50;99.90
1626;DHT22;806;48.770;9.156;2023-02-28T07:59:09;2.60;99.90
1626;DHT22;806;48.770;9.156;2023-02-28T08:01:36;2.80;99.90
1626;DHT22;806;48.770;9.156;2023-02-28T08:04:03;2.80;99.90
1626;DHT22;806;48.770;9.156;2023-02-28T08:06:31;2.50;99.90
1626;DHT22;806;48.770;9.156;2023-02-28T08:08:59;2.40;99.90
1626;DHT22;806;48.770;9.156;2023-02-28T08:11:26;2.20;99.90
1626;DHT22;806;48.770;9.156;2023-02-28T08:13:54;2.10;99.90
1626;DHT22;806;48.770;9.156;2023-02-28T08:16:21;2.30;99.90
1626;DHT22;806;48.770;9.156;2023-02-28T08:18:49;2.30;99.90
1626;DHT22;806;48.770;9.156;2023-02-28T08:21:16;2.60;99.90
1626;DHT22;806;48.770;9.156;2023-02-28T08:23:45;2.30;99.90
1626;DHT22;806;48.770;9.156;2023-02-28T08:26:15;2.30;99.90
1626;DHT22;806;48.770;9.156;2023-02-28T08:28:42;2.50;99.90
1626;DHT22;806;48.770;9.156;2023-02-28T08:31:11;2.70;99.90
1626;DHT22;806;48.770;9.156;2023-02-28T08:33:39;2.80;99.90
1626;DHT22;806;48.770;9.156;2023-02-28T08:36:08;2.50;99.90
1626;DHT22;806;48.770;9.156;2023-02-28T08:38:36;2.30;99.90
1626;DHT22;806;48.770;9.156;2023-02-28T08:41:05;2.20;99.90
1626;DHT22;806;48.770;9.156;2023-02-28T08:43:34;2.30;99.90
1626;DHT22;806;48.770;9.156;2023-02-28T08:46:02;2.20;99.90
1626;DHT22;806;48.770;9.156;2023-02-28T08:48:30;2.20;99.90
1626;DHT22;806;48.770;9.156;2023-02-28T08:50:59;2.10;99.90
1626;DHT22;806;48.770;9.156;2023-02-28T08:53:27;2.30;99.90
1626;DHT22;806;48.770;9.156;2023-02-28T08:55:57;2.40;99.90
1626;DHT22;806;48.770;9.156;2023-02-28T08:58:25;2.70;99.90
1626;DHT22;806;48.770;9.156;2023-02-28T09:00:54;2.70;99.90
1626;DHT22;806;48.770;9.156;2023-02-28T09:03:21;2.50;99.90
1626;DHT22;806;48.770;9.156;2023-02-28T09:05:53;2.80;99.90
1626;DHT22;806;48.770;9.156;2023-02-28T09:08:20;2.90;99.90
1626;DHT22;806;48.770;9.156;2023-02-28T09:10:47;3.00;99.90
1626;DHT22;806;48.770;9.156;2023-02-28T09:13:14;3.00;99.90
1626;DHT22;806;48.770;9.156;2023-02-28T09:15:41;3.30;99.90
1626;DHT22;806;48.770;9.156;2023-02-28T09:18:10;3.50;99.90
1626;DHT22;806;48.770;9.156;2023-02-28T09:20:37;3.50;99.90
1626;DHT22;806;48.770;9.156;2023-02-28T09:23:05;3.30;99.90
1626;DHT22;806;48.770;9.156;2023-02-28T09:25:33;3.60;99.90
1626;DHT22;806;48.770;9.156;2023-02-28T09:28:00;3.40;99.90
1626;DHT22;806;48.770;9.156;2023-02-28T09:30:27;3.30;99.90
1626;DHT22;806;48.770;9.156;2023-02-28T09:32:54;3.60;99.90
1626;DHT22;806;48.770;9.156;2023-02-28T09:35:23;3.50;99.90
1626;DHT22;806;48.770;9.156;2023-02-28T09:37:52;3.30;99.90
1626;DHT22;806;48.770;9.156;2023-02-28T09:40:22;3.10;99.90
1626;DHT22;806;48.770;9.156;2023-02-28T09:42:52;3.30;99.90
1626;DHT22;806;48.770;9.156;2023-02-28T09:45:24;3.20;99.90
1626;DHT22;806;48.770;9.156;2023-02-28T09:47:53;3.10;99.90
1626;DHT22;806;48.770;9.156;2023-02-28T09:50:29;3.10;99.90
1626;DHT22;806;48.770;9.156;2023-02-28T09:52:59;3.00;99.90
1626;DHT22;806;48.770;9.156;2023-02-28T09:55:31;3.00;99.90
1626;DHT22;806;48.770;9.156;2023-02-28T09:58:00;3.20;99.90
1626;DHT22;806;48.770;9.156;2023-02-28T10:00:32;2.90;99.90
1626;DHT22;806;48.770;9.156;2023-02-28T10:03:29;2.80;99.90
1626;DHT22;806;48.770;9.156;2023-02-28T10:06:05;3.10;99.90
1626;DHT22;806;48.770;9.156;2023-02-28T10:08:37;3.30;99.90
1626;DHT22;806;48.770;9.156;2023-02-28T10:11:10;3.60;99.90
1626;DHT22;806;48.770;9.156;2023-02-28T10:13:46;3.50;99.90
1626;DHT22;806;48.770;9.156;2023-02-28T10:16:21;3.30;99.90
1626;DHT22;806;48.770;9.156;2023-02-28T10:18:54;3.10;99.90
1626;DHT22;806;48.770;9.156;2023-02-28T10:21:26;2.90;99.90
1626;DHT22;806;48.770;9.156;2023-02-28T10:24:02;3.00;99.90
1626;DHT22;806;48.770;9.156;2023-02-28T10:26:31;2.70;99.90
1626;DHT22;806;48.770;9.156;2023-02-28T10:28:59;2.50;99.90
1626;DHT22;806;48.770;9.156;2023-02-28T10:31:26;3.00;99.90
1626;DHT22;806;48.770;9.156;2023-02-28T10:33:54;3.30;99.90
1626;DHT22;806;48.770;9.156;2023-02-28T10:36:23;3.50;99.90
1626;DHT22;806;48.770;9.156;2023-02-28T10:38:50;3.80;99.90
1626;DHT22;806;48.770;9.156;2023-02-28T10:41:28;4.00;99.90
1626;DHT22;806;48.770;9.156;2023-02-28T10:44:15;4.00;99.90
1626;DHT22;806;48.770;9.156;2023-02-28T10:46:45;4.00;99.90
1626;DHT22;806;48.770;9.156;2023-02-28T10:49:15;4.00;99.90
1626;DHT22;806;48.770;9.156;2023-02-28T10:51:45;3.80;99.90
1626;DHT22;806;48.770;9.156;2023-02-28T10:54:19;4.00;99.90
1626;DHT22;806;48.770;9.156;2023-02-28T10:57:05;4.10;99.90
1626;DHT22;806;48.770;9.156;2023-02-28T10:59:34;4.00;99.90
1626;DHT22;806;48.770;9.156;2023-02-28T11:02:01;4.10;99.90
1626;DHT22;806;48.770;9.156;2023-02-28T11:04:34;4.10;99.90
1626;DHT22;806;48.770;9.156;2023-02-28T11:07:06;4.10;99.90
1626;DHT22;806;48.770;9.156;2023-02-28T11:09:45;4.10;99.90
1626;DHT22;806;48.770;9.156;2023-02-28T11:12:21;4.00;99.90
1626;DHT22;806;48.770;9.156;2023-02-28T11:14:50;3.90;99.90
1626;DHT22;806;48.770;9.156;2023-02-28T11:17:21;3.90;99.90
1626;DHT22;806;48.770;9.156;2023-02-28T11:19:52;4.20;99.90
1626;DHT22;806;48.770;9.156;2023-02-28T11:22:23;4.40;99.90
1626;DHT22;806;48.770;9.156;2023-02-28T11:24:56;4.90;99.90
1626;DHT22;806;48.770;9.156;2023-02-28T11:27:46;5.00;99.90
1626;DHT22;806;48.770;9.156;2023-02-28T11:30:30;4.80;99.90
1626;DHT22;806;48.770;9.156;2023-02-28T11:32:57;4.80;99.90
1626;DHT22;806;48.770;9.156;2023-02-28T11:35:29;5.10;99.90
1626;DHT22;806;48.770;9.156;2023-02-28T11:37:58;5.20;99.90
1626;DHT22;806;48.770;9.156;2023-02-28T11:40:31;5.30;99.90
1626;DHT22;806;48.770;9.156;2023-02-28T11:43:17;5.80;99.90
1626;DHT22;806;48.770;9.156;2023-02-28T11:45:58;6.00;99.90
1626;DHT22;806;48.770;9.156;2023-02-28T11:48:37;5.80;99.90
1626;DHT22;806;48.770;9.156;2023-02-28T11:51:13;6.00;99.90
1626;DHT22;806;48.770;9.156;2023-02-28T11:54:11;6.00;99.90
1626;DHT22;806;48.770;9.156;2023-02-28T11:56:46;5.90;99.90
1626;DHT22;806;48.770;9.156;2023-02-28T11:59:35;6.00;99.90
1626;DHT22;806;48.770;9.156;2023-02-28T12:02:24;5.90;99.90
1626;DHT22;806;48.770;9.156;2023-02-28T12:05:08;5.60;99.90
1626;DHT22;806;48.770;9.156;2023-02-28T12:07:48;5.30;99.90
1626;DHT22;806;48.770;9.156;2023-02-28T12:10:22;5.90;99.90
1626;DHT22;806;48.770;9.156;2023-02-28T12:13:00;6.20;99.90
1626;DHT22;806;48.770;9.156;2023-02-28T12:16:01;6.10;99.90
1626;DHT22;806;48.770;9.156;2023-02-28T12:18:42;6.10;99.90
1626;DHT22;806;48.770;9.156;2023-02-28T12:21:18;6.10;99.90
1626;DHT22;806;48.770;9.156;2023-02-28T12:26:46;6.10;99.90
1626;DHT22;806;48.770;9.156;2023-02-28T12:29:19;6.50;99.90
1626;DHT22;806;48.770;9.156;2023-02-28T12:31:51;6.80;99.90
1626;DHT22;806;48.770;9.156;2023-02-28T12:34:24;7.10;99.90
1626;DHT22;806;48.770;9.156;2023-02-28T12:36:53;7.00;99.70
1626;DHT22;806;48.770;9.156;2023-02-28T12:39:26;6.30;99.90
1626;DHT22;806;48.770;9.156;2023-02-28T12:41:58;6.20;99.90
1626;DHT22;806;48.770;9.156;2023-02-28T12:44:32;6.40;99.90
1626;DHT22;806;48.770;9.156;2023-02-28T12:47:02;6.60;99.90
1626;DHT22;806;48.770;9.156;2023-02-28T12:49:34;6.80;99.90
1626;DHT22;806;48.770;9.156;2023-02-28T12:52:04;6.70;99.90
1626;DHT22;806;48.770;9.156;2023-02-28T12:54:40;7.00;99.90
1626;DHT22;806;48.770;9.156;2023-02-28T12:57:17;7.00;99.70
1626;DHT22;806;48.770;9.156;2023-02-28T12:59:49;7.30;99.90
1626;DHT22;806;48.770;9.156;2023-02-28T13:02:50;7.40;98.90
1626;DHT22;806;48.770;9.156;2023-02-28T13:05:52;7.40;98.40
1626;DHT22;806;48.770;9.156;2023-02-28T13:08:49;7.00;97.20
1626;DHT22;806;48.770;9.156;2023-02-28T13:11:26;6.40;98.20
1626;DHT22;806;48.770;9.156;2023-02-28T13:14:00;6.70;98.50
1626;DHT22;806;48.770;9.156;2023-02-28T13:16:42;6.80;98.50
1626;DHT22;806;48.770;9.156;2023-02-28T13:19:17;6.80;98.40
1626;DHT22;806;48.770;9.156;2023-02-28T13:21:46;6.70;98.00
1626;DHT22;806;48.770;9.156;2023-02-28T13:24:38;6.70;98.00
1626;DHT22;806;48.770;9.156;2023-02-28T13:33:25;6.50;99.10
1626;DHT22;806;48.770;9.156;2023-02-28T13:36:26;7.00;99.90
1626;DHT22;806;48.770;9.156;2023-02-28T13:38:55;7.00;98.00
1626;DHT22;806;48.770;9.156;2023-02-28T13:41:44;6.90;99.20
1626;DHT22;806;48.770;9.156;2023-02-28T13:44:16;6.80;98.30
1626;DHT22;806;48.770;9.156;2023-02-28T13:47:19;6.60;98.40
1626;DHT22;806;48.770;9.156;2023-02-28T13:49:50;6.40;98.80
1626;DHT22;806;48.770;9.156;2023-02-28T13:52:23;6.60;99.90
1626;DHT22;806;48.770;9.156;2023-02-28T13:55:00;6.60;98.20
1626;DHT22;806;48.770;9.156;2023-02-28T13:57:41;6.70;98.90
1626;DHT22;806;48.770;9.156;2023-02-28T14:00:20;6.80;98.10
1626;DHT22;806;48.770;9.156;2023-02-28T14:03:11;6.80;97.60
1626;DHT22;806;48.770;9.156;2023-02-28T14:05:44;6.90;98.50
1626;DHT22;806;48.770;9.156;2023-02-28T14:08:15;7.10;97.50
1626;DHT22;806;48.770;9.156;2023-02-28T14:10:46;7.00;97.30
1626;DHT22;806;48.770;9.156;2023-02-28T14:13:38;7.10;97.00
1626;DHT22;806;48.770;9.156;2023-02-28T14:16:11;7.10;97.10
1626;DHT22;806;48.770;9.156;2023-02-28T14:18:42;7.00;96.90
1626;DHT22;806;48.770;9.156;2023-02-28T14:21:21;6.90;96.90
1626;DHT22;806;48.770;9.156;2023-02-28T14:27:15;6.90;96.70
1626;DHT22;806;48.770;9.156;2023-02-28T14:30:13;6.90;97.50
1626;DHT22;806;48.770;9.156;2023-02-28T14:32:47;6.70;97.00
1626;DHT22;806;48.770;9.156;2023-02-28T14:35:35;6.80;96.70
1626;DHT22;806;48.770;9.156;2023-02-28T14:38:14;6.80;97.40
1626;DHT22;806;48.770;9.156;2023-02-28T14:40:45;6.80;96.90
1626;DHT22;806;48.770;9.156;2023-02-28T14:43:20;6.50;97.30
1626;DHT22;806;48.770;9.156;2023-02-28T14:45:50;6.50;96.90
1626;DHT22;806;48.770;9.156;2023-02-28T14:48:19;6.50;97.40
1626;DHT22;806;48.770;9.156;2023-02-28T14:50:49;6.60;97.50
1626;DHT22;806;48.770;9.156;2023-02-28T14:53:22;6.60;97.10
1626;DHT22;806;48.770;9.156;2023-02-28T14:55:50;6.50;97.30
1626;DHT22;806;48.770;9.156;2023-02-28T14:58:24;6.50;97.50
1626;DHT22;806;48.770;9.156;2023-02-28T15:00:54;6.60;99.20
1626;DHT22;806;48.770;9.156;2023-02-28T15:03:23;6.70;98.20
1626;DHT22;806;48.770;9.156;2023-02-28T15:05:52;6.50;97.70
1626;DHT22;806;48.770;9.156;2023-02-28T15:08:21;6.30;97.10
1626;DHT22;806;48.770;9.156;2023-02-28T15:10:53;6.40;98.90
1626;DHT22;806;48.770;9.156;2023-02-28T15:13:21;6.50;98.20
1626;DHT22;806;48.770;9.156;2023-02-28T15:15:52;6.60;99.20
1626;DHT22;806;48.770;9.156;2023-02-28T15:18:30;6.70;98.30
1626;DHT22;806;48.770;9.156;2023-02-28T15:21:03;6.80;98.80
1626;DHT22;806;48.770;9.156;2023-02-28T15:23:35;6.70;98.00
1626;DHT22;806;48.770;9.156;2023-02-28T15:26:03;6.60;98.10
1626;DHT22;806;48.770;9.156;2023-02-28T15:28:31;6.40;98.30
1626;DHT22;806;48.770;9.156;2023-02-28T15:31:00;6.40;99.20
1626;DHT22;806;48.770;9.156;2023-02-28T15:33:29;6.50;99.60
1626;DHT22;806;48.770;9.156;2023-02-28T15:36:10;6.70;98.80
1626;DHT22;806;48.770;9.156;2023-02-28T15:38:41;6.60;98.60
1626;DHT22;806;48.770;9.156;2023-02-28T15:41:23;6.60;99.20
1626;DHT22;806;48.770;9.156;2023-02-28T15:44:14;6.50;98.40
1626;DHT22;806;48.770;9.156;2023-02-28T15:46:44;6.50;99.90
1626;DHT22;806;48.770;9.156;2023-02-28T15:49:19;6.40;99.90
1626;DHT22;806;48.770;9.156;2023-02-28T15:51:49;6.50;99.90
1626;DHT22;806;48.770;9.156;2023-02-28T15:54:20;6.70;99.90
1626;DHT22;806;48.770;9.156;2023-02-28T15:56:51;6.70;99.90
1626;DHT22;806;48.770;9.156;2023-02-28T15:59:21;6.60;98.40
1626;DHT22;806;48.770;9.156;2023-02-28T16:02:04;6.50;99.30
1626;DHT22;806;48.770;9.156;2023-02-28T16:04:54;6.50;99.90
1626;DHT22;806;48.770;9.156;2023-02-28T16:07:22;6.50;99.50
1626;DHT22;806;48.770;9.156;2023-02-28T16:09:51;6.40;99.90
1626;DHT22;806;48.770;9.156;2023-02-28T16:12:19;6.50;99.90
1626;DHT22;806;48.770;9.156;2023-02-28T16:14:48;6.40;99.90
1626;DHT22;806;48.770;9.156;2023-02-28T16:17:20;6.30;99.70
1626;DHT22;806;48.770;9.156;2023-02-28T16:19:48;6.10;99.90
1626;DHT22;806;48.770;9.156;2023-02-28T16:22:16;5.90;99.90
1626;DHT22;806;48.770;9.156;2023-02-28T16:24:43;5.90;99.90
1626;DHT22;806;48.770;9.156;2023-02-28T16:27:17;5.80;99.90
1626;DHT22;806;48.770;9.156;2023-02-28T16:29:45;5.70;99.90
1626;DHT22;806;48.770;9.156;2023-02-28T16:32:14;5.70;99.90
1626;DHT22;806;48.770;9.156;2023-02-28T16:34:42;5.60;99.90
1626;DHT22;806;48.770;9.156;2023-02-28T16:37:13;5.50;99.90
1626;DHT22;806;48.770;9.156;2023-02-28T16:39:41;5.50;99.90
1626;DHT22;806;48.770;9.156;2023-02-28T16:42:16;5.50;99.90
1626;DHT22;806;48.770;9.156;2023-02-28T16:44:46;5.50;99.90
1626;DHT22;806;48.770;9.156;2023-02-28T16:47:13;5.40;99.90
1626;DHT22;806;48.770;9.156;2023-02-28T16:49:40;5.40;99.90
1626;DHT22;806;48.770;9.156;2023-02-28T16:52:09;5.50;99.90
1626;DHT22;806;48.770;9.156;2023-02-28T16:54:37;5.50;99.90
1626;DHT22;806;48.770;9.156;2023-02-28T16:57:05;5.40;99.90
1626;DHT22;806;48.770;9.156;2023-02-28T16:59:33;5.30;99.90
1626;DHT22;806;48.770;9.156;2023-02-28T17:02:00;5.30;99.90
1626;DHT22;806;48.770;9.156;2023-02-28T17:04:27;5.20;99.90
1626;DHT22;806;48.770;9.156;2023-02-28T17:06:54;5.20;99.90
1626;DHT22;806;48.770;9.156;2023-02-28T17:09:23;5.10;99.90
1626;DHT22;806;48.770;9.156;2023-02-28T17:11:52;5.20;99.90
1626;DHT22;806;48.770;9.156;2023-02-28T17:14:19;5.10;99.90
1626;DHT22;806;48.770;9.156;2023-02-28T17:16:48;5.00;99.90
1626;DHT22;806;48.770;9.156;2023-02-28T17:19:16;5.00;99.90
1626;DHT22;806;48.770;9.156;2023-02-28T17:21:44;5.00;99.90